sensor_id;sensor_type;location;lat;lon;timestamp;P1;durP1;ratioP1;P2;durP2;ratioP2
5559;SDS011;2803;47.916;8.074;2022-08-01T00:00:07;4.33;;;1.90;;
5559;SDS011;2803;47.916;8.074;2022-08-01T00:02:35;2.50;;;1.60;;
5559;SDS011;2803;47.916;8.074;2022-08-01T00:05:02;4.60;;;1.90;;
5559;SDS011;2803;47.916;8.074;2022-08-01T00:07:32;2.50;;;2.17;;
5559;SDS011;2803;47.916;8.074;2022-08-01T00:09:58;5.30;;;1.70;;
5559;SDS011;2803;47.916;8.074;2022-08-01T00:12:25;4.77;;;1.77;;
5559;SDS011;2803;47.916;8.074;2022-08-01T00:14:51;6.10;;;1.90;;
5559;SDS011;2803;47.916;8.074;2022-08-01T00:17:18;8.37;;;1.90;;
5559;SDS011;2803;47.916;8.074;2022-08-01T00:19:45;3.27;;;1.80;;
5559;SDS011;2803;47.916;8.074;2022-08-01T00:22:11;1.97;;;1.80;;
5559;SDS011;2803;47.916;8.074;2022-08-01T00:24:39;3.27;;;1.77;;
5559;SDS011;2803;47.916;8.074;2022-08-01T00:27:06;3.93;;;1.90;;
5559;SDS011;2803;47.916;8.074;2022-08-01T00:29:32;2.53;;;1.90;;
5559;SDS011;2803;47.916;8.074;2022-08-01T00:31:59;4.53;;;2.10;;
5559;SDS011;2803;47.916;8.074;2022-08-01T00:34:25;2.10;;;1.70;;
5559;SDS011;2803;47.916;8.074;2022-08-01T00:36:52;3.77;;;2.00;;
5559;SDS011;2803;47.916;8.074;2022-08-01T00:39:18;3.23;;;2.23;;
5559;SDS011;2803;47.916;8.074;2022-08-01T00:41:46;3.00;;;2.13;;
5559;SDS011;2803;47.916;8.074;2022-08-01T00:44:13;2.07;;;1.87;;
5559;SDS011;2803;47.916;8.074;2022-08-01T00:46:39;3.03;;;2.10;;
5559;SDS011;2803;47.916;8.074;2022-08-01T00:49:06;3.90;;;2.10;;
5559;SDS011;2803;47.916;8.074;2022-08-01T00:51:33;3.30;;;2.00;;
5559;SDS011;2803;47.916;8.074;2022-08-01T00:54:00;3.53;;;2.20;;
5559;SDS011;2803;47.916;8.074;2022-08-01T00:56:27;5.53;;;2.40;;
5559;SDS011;2803;47.916;8.074;2022-08-01T00:58:55;4.03;;;2.60;;
5559;SDS011;2803;47.916;8.074;2022-08-01T01:01:22;2.40;;;2.20;;
5559;SDS011;2803;47.916;8.074;2022-08-01T01:03:49;4.00;;;2.30;;
5559;SDS011;2803;47.916;8.074;2022-08-01T01:06:23;6.80;;;2.60;;
5559;SDS011;2803;47.916;8.074;2022-08-01T01:08:55;2.70;;;2.37;;
5559;SDS011;2803;47.916;8.074;2022-08-01T01:11:40;2.47;;;1.97;;
5559;SDS011;2803;47.916;8.074;2022-08-01T01:14:17;7.60;;;2.47;;
5559;SDS011;2803;47.916;8.074;2022-08-01T01:16:52;5.83;;;2.63;;
5559;SDS011;2803;47.916;8.074;2022-08-01T01:19:21;3.33;;;2.90;;
5559;SDS011;2803;47.916;8.074;2022-08-01T01:22:00;3.17;;;2.47;;
5559;SDS011;2803;47.916;8.074;2022-08-01T01:24:39;3.20;;;2.43;;
5559;SDS011;2803;47.916;8.074;2022-08-01T01:27:17;5.10;;;2.10;;
5559;SDS011;2803;47.916;8.074;2022-08-01T01:29:52;2.63;;;2.43;;
5559;SDS011;2803;47.916;8.074;2022-08-01T01:32:23;4.90;;;2.40;;
5559;SDS011;2803;47.916;8.074;2022-08-01T01:34:54;5.80;;;2.70;;
5559;SDS011;2803;47.916;8.074;2022-08-01T01:37:23;3.40;;;2.70;;
5559;SDS011;2803;47.916;8.074;2022-08-01T01:39:53;3.67;;;2.80;;
5559;SDS011;2803;47.916;8.074;2022-08-01T01:42:21;2.80;;;2.53;;
5559;SDS011;2803;47.916;8.074;2022-08-01T01:44:50;2.90;;;2.60;;
5559;SDS011;2803;47.916;8.074;2022-08-01T01:47:19;3.70;;;3.00;;
5559;SDS011;2803;47.916;8.074;2022-08-01T01:49:47;3.27;;;2.93;;
5559;SDS011;2803;47.916;8.074;2022-08-01T01:52:16;8.50;;;3.47;;
5559;SDS011;2803;47.916;8.074;2022-08-01T01:54:45;3.60;;;2.83;;
5559;SDS011;2803;47.916;8.074;2022-08-01T01:57:14;2.83;;;2.50;;
5559;SDS011;2803;47.916;8.074;2022-08-01T01:59:42;6.93;;;3.03;;
5559;SDS011;2803;47.916;8.074;2022-08-01T02:02:11;4.53;;;3.00;;
5559;SDS011;2803;47.916;8.074;2022-08-01T02:04:42;5.10;;;2.77;;
5559;SDS011;2803;47.916;8.074;2022-08-01T02:07:12;4.20;;;2.90;;
5559;SDS011;2803;47.916;8.074;2022-08-01T02:09:50;4.80;;;2.77;;
5559;SDS011;2803;47.916;8.074;2022-08-01T02:12:20;12.43;;;3.60;;
5559;SDS011;2803;47.916;8.074;2022-08-01T02:14:47;4.43;;;2.80;;
5559;SDS011;2803;47.916;8.074;2022-08-01T02:17:18;4.10;;;2.93;;
5559;SDS011;2803;47.916;8.074;2022-08-01T02:19:46;4.90;;;2.70;;
5559;SDS011;2803;47.916;8.074;2022-08-01T02:22:16;5.73;;;2.90;;
5559;SDS011;2803;47.916;8.074;2022-08-01T02:24:49;3.40;;;2.57;;
5559;SDS011;2803;47.916;8.074;2022-08-01T02:27:21;5.67;;;3.07;;
5559;SDS011;2803;47.916;8.074;2022-08-01T02:29:52;4.00;;;3.33;;
5559;SDS011;2803;47.916;8.074;2022-08-01T02:32:26;4.00;;;3.20;;
5559;SDS011;2803;47.916;8.074;2022-08-01T02:34:57;7.90;;;3.30;;
5559;SDS011;2803;47.916;8.074;2022-08-01T02:37:26;5.03;;;3.37;;
5559;SDS011;2803;47.916;8.074;2022-08-01T02:39:57;4.07;;;3.23;;
5559;SDS011;2803;47.916;8.074;2022-08-01T02:42:26;6.23;;;3.20;;
5559;SDS011;2803;47.916;8.074;2022-08-01T02:44:54;4.97;;;4.00;;
5559;SDS011;2803;47.916;8.074;2022-08-01T02:47:22;4.30;;;2.80;;
5559;SDS011;2803;47.916;8.074;2022-08-01T02:49:52;4.80;;;3.87;;
5559;SDS011;2803;47.916;8.074;2022-08-01T02:52:20;3.20;;;2.43;;
5559;SDS011;2803;47.916;8.074;2022-08-01T02:54:51;4.53;;;3.00;;
5559;SDS011;2803;47.916;8.074;2022-08-01T02:57:21;6.20;;;3.40;;
5559;SDS011;2803;47.916;8.074;2022-08-01T02:59:49;3.93;;;3.37;;
5559;SDS011;2803;47.916;8.074;2022-08-01T03:02:17;4.80;;;3.00;;
5559;SDS011;2803;47.916;8.074;2022-08-01T03:04:45;4.43;;;3.10;;
5559;SDS011;2803;47.916;8.074;2022-08-01T03:07:14;5.17;;;3.60;;
5559;SDS011;2803;47.916;8.074;2022-08-01T03:09:43;5.03;;;2.97;;
5559;SDS011;2803;47.916;8.074;2022-08-01T03:12:13;6.80;;;3.40;;
5559;SDS011;2803;47.916;8.074;2022-08-01T03:14:42;6.10;;;3.57;;
5559;SDS011;2803;47.916;8.074;2022-08-01T03:17:10;8.33;;;3.20;;
5559;SDS011;2803;47.916;8.074;2022-08-01T03:19:38;3.20;;;2.80;;
5559;SDS011;2803;47.916;8.074;2022-08-01T03:22:05;7.57;;;3.70;;
5559;SDS011;2803;47.916;8.074;2022-08-01T03:24:35;8.23;;;3.50;;
5559;SDS011;2803;47.916;8.074;2022-08-01T03:27:03;3.53;;;2.90;;
5559;SDS011;2803;47.916;8.074;2022-08-01T03:29:32;4.90;;;3.57;;
5559;SDS011;2803;47.916;8.074;2022-08-01T03:32:00;8.93;;;3.27;;
5559;SDS011;2803;47.916;8.074;2022-08-01T03:34:28;4.63;;;3.40;;
5559;SDS011;2803;47.916;8.074;2022-08-01T03:36:55;5.43;;;3.17;;
5559;SDS011;2803;47.916;8.074;2022-08-01T03:39:28;4.60;;;3.50;;
5559;SDS011;2803;47.916;8.074;2022-08-01T03:42:01;3.63;;;3.30;;
5559;SDS011;2803;47.916;8.074;2022-08-01T03:44:33;4.77;;;3.90;;
5559;SDS011;2803;47.916;8.074;2022-08-01T03:47:04;5.50;;;3.77;;
5559;SDS011;2803;47.916;8.074;2022-08-01T03:49:35;6.20;;;3.53;;
5559;SDS011;2803;47.916;8.074;2022-08-01T03:52:06;5.00;;;3.30;;
5559;SDS011;2803;47.916;8.074;2022-08-01T03:54:35;5.27;;;3.20;;
5559;SDS011;2803;47.916;8.074;2022-08-01T03:57:07;4.03;;;3.30;;
5559;SDS011;2803;47.916;8.074;2022-08-01T03:59:35;7.83;;;3.20;;
5559;SDS011;2803;47.916;8.074;2022-08-01T04:02:03;7.90;;;4.00;;
5559;SDS011;2803;47.916;8.074;2022-08-01T04:04:30;5.17;;;3.70;;
5559;SDS011;2803;47.916;8.074;2022-08-01T04:06:57;5.10;;;3.53;;
5559;SDS011;2803;47.916;8.074;2022-08-01T04:09:29;5.37;;;4.00;;
5559;SDS011;2803;47.916;8.074;2022-08-01T04:11:56;3.37;;;3.07;;
5559;SDS011;2803;47.916;8.074;2022-08-01T04:14:25;4.70;;;3.40;;
5559;SDS011;2803;47.916;8.074;2022-08-01T04:16:52;6.03;;;3.90;;
5559;SDS011;2803;47.916;8.074;2022-08-01T04:19:19;4.30;;;3.20;;
5559;SDS011;2803;47.916;8.074;2022-08-01T04:21:45;3.80;;;2.90;;
5559;SDS011;2803;47.916;8.074;2022-08-01T04:24:13;6.93;;;4.30;;
5559;SDS011;2803;47.916;8.074;2022-08-01T04:26:43;4.30;;;3.60;;
5559;SDS011;2803;47.916;8.074;2022-08-01T04:29:12;5.17;;;3.57;;
5559;SDS011;2803;47.916;8.074;2022-08-01T04:31:43;4.70;;;3.80;;
5559;SDS011;2803;47.916;8.074;2022-08-01T04:34:12;5.70;;;4.10;;
5559;SDS011;2803;47.916;8.074;2022-08-01T04:36:42;4.20;;;3.63;;
5559;SDS011;2803;47.916;8.074;2022-08-01T04:39:11;8.63;;;3.63;;
5559;SDS011;2803;47.916;8.074;2022-08-01T04:41:39;6.50;;;4.00;;
5559;SDS011;2803;47.916;8.074;2022-08-01T04:44:06;4.70;;;3.70;;
5559;SDS011;2803;47.916;8.074;2022-08-01T04:46:33;6.57;;;3.97;;
5559;SDS011;2803;47.916;8.074;2022-08-01T04:49:03;5.30;;;4.03;;
5559;SDS011;2803;47.916;8.074;2022-08-01T04:51:31;6.07;;;3.60;;
5559;SDS011;2803;47.916;8.074;2022-08-01T04:53:59;6.30;;;3.83;;
5559;SDS011;2803;47.916;8.074;2022-08-01T04:56:26;4.40;;;3.50;;
5559;SDS011;2803;47.916;8.074;2022-08-01T04:58:52;6.30;;;4.20;;
5559;SDS011;2803;47.916;8.074;2022-08-01T05:01:33;5.30;;;4.00;;
5559;SDS011;2803;47.916;8.074;2022-08-01T05:04:00;3.70;;;3.33;;
5559;SDS011;2803;47.916;8.074;2022-08-01T05:06:28;5.10;;;3.80;;
5559;SDS011;2803;47.916;8.074;2022-08-01T05:08:54;5.57;;;3.80;;
5559;SDS011;2803;47.916;8.074;2022-08-01T05:11:21;5.70;;;4.17;;
5559;SDS011;2803;47.916;8.074;2022-08-01T05:13:47;3.83;;;3.43;;
5559;SDS011;2803;47.916;8.074;2022-08-01T05:16:14;4.00;;;3.50;;
5559;SDS011;2803;47.916;8.074;2022-08-01T05:18:41;5.17;;;3.50;;
5559;SDS011;2803;47.916;8.074;2022-08-01T05:21:08;6.77;;;3.90;;
5559;SDS011;2803;47.916;8.074;2022-08-01T05:23:36;6.30;;;3.60;;
5559;SDS011;2803;47.916;8.074;2022-08-01T05:26:02;4.70;;;3.93;;
5559;SDS011;2803;47.916;8.074;2022-08-01T05:28:29;5.80;;;4.00;;
5559;SDS011;2803;47.916;8.074;2022-08-01T05:30:56;4.40;;;3.50;;
5559;SDS011;2803;47.916;8.074;2022-08-01T05:33:23;10.53;;;3.90;;
5559;SDS011;2803;47.916;8.074;2022-08-01T05:35:49;4.00;;;3.60;;
5559;SDS011;2803;47.916;8.074;2022-08-01T05:38:16;6.93;;;3.80;;
5559;SDS011;2803;47.916;8.074;2022-08-01T05:40:44;6.03;;;3.37;;
5559;SDS011;2803;47.916;8.074;2022-08-01T05:43:11;6.73;;;3.50;;
5559;SDS011;2803;47.916;8.074;2022-08-01T05:45:37;9.10;;;3.53;;
5559;SDS011;2803;47.916;8.074;2022-08-01T05:48:06;4.83;;;3.30;;
5559;SDS011;2803;47.916;8.074;2022-08-01T05:50:33;5.60;;;4.20;;
5559;SDS011;2803;47.916;8.074;2022-08-01T05:53:00;9.87;;;3.80;;
5559;SDS011;2803;47.916;8.074;2022-08-01T05:55:27;7.50;;;4.30;;
5559;SDS011;2803;47.916;8.074;2022-08-01T05:57:55;9.30;;;4.07;;
5559;SDS011;2803;47.916;8.074;2022-08-01T06:00:22;6.20;;;3.90;;
5559;SDS011;2803;47.916;8.074;2022-08-01T06:02:48;5.37;;;3.77;;
5559;SDS011;2803;47.916;8.074;2022-08-01T06:05:15;4.10;;;3.50;;
5559;SDS011;2803;47.916;8.074;2022-08-01T06:07:42;8.33;;;3.70;;
5559;SDS011;2803;47.916;8.074;2022-08-01T06:10:08;5.30;;;3.90;;
5559;SDS011;2803;47.916;8.074;2022-08-01T06:12:35;6.90;;;4.07;;
5559;SDS011;2803;47.916;8.074;2022-08-01T06:15:04;6.60;;;4.50;;
5559;SDS011;2803;47.916;8.074;2022-08-01T06:17:31;4.63;;;3.90;;
5559;SDS011;2803;47.916;8.074;2022-08-01T06:19:58;5.33;;;3.57;;
5559;SDS011;2803;47.916;8.074;2022-08-01T06:22:25;5.20;;;3.70;;
5559;SDS011;2803;47.916;8.074;2022-08-01T06:24:52;7.40;;;4.17;;
5559;SDS011;2803;47.916;8.074;2022-08-01T06:27:18;7.10;;;4.20;;
5559;SDS011;2803;47.916;8.074;2022-08-01T06:29:45;5.97;;;4.10;;
5559;SDS011;2803;47.916;8.074;2022-08-01T06:32:13;5.83;;;3.50;;
5559;SDS011;2803;47.916;8.074;2022-08-01T06:34:40;4.60;;;3.37;;
5559;SDS011;2803;47.916;8.074;2022-08-01T06:37:06;4.87;;;3.40;;
5559;SDS011;2803;47.916;8.074;2022-08-01T06:39:33;5.17;;;3.73;;
5559;SDS011;2803;47.916;8.074;2022-08-01T06:42:00;5.83;;;3.83;;
5559;SDS011;2803;47.916;8.074;2022-08-01T06:44:26;6.33;;;3.83;;
5559;SDS011;2803;47.916;8.074;2022-08-01T06:46:53;4.70;;;4.00;;
5559;SDS011;2803;47.916;8.074;2022-08-01T06:49:21;7.77;;;3.90;;
5559;SDS011;2803;47.916;8.074;2022-08-01T06:51:47;6.30;;;3.87;;
5559;SDS011;2803;47.916;8.074;2022-08-01T06:54:14;7.77;;;4.60;;
5559;SDS011;2803;47.916;8.074;2022-08-01T06:56:41;11.20;;;4.30;;
5559;SDS011;2803;47.916;8.074;2022-08-01T06:59:08;7.60;;;4.80;;
5559;SDS011;2803;47.916;8.074;2022-08-01T07:01:35;10.23;;;4.20;;
5559;SDS011;2803;47.916;8.074;2022-08-01T07:04:01;8.30;;;3.93;;
5559;SDS011;2803;47.916;8.074;2022-08-01T07:06:30;4.37;;;3.57;;
5559;SDS011;2803;47.916;8.074;2022-08-01T07:08:57;5.00;;;3.90;;
5559;SDS011;2803;47.916;8.074;2022-08-01T07:11:25;6.27;;;3.70;;
5559;SDS011;2803;47.916;8.074;2022-08-01T07:13:52;5.50;;;3.30;;
5559;SDS011;2803;47.916;8.074;2022-08-01T07:16:19;4.70;;;3.50;;
5559;SDS011;2803;47.916;8.074;2022-08-01T07:18:45;5.07;;;3.03;;
5559;SDS011;2803;47.916;8.074;2022-08-01T07:21:12;3.87;;;2.90;;
5559;SDS011;2803;47.916;8.074;2022-08-01T07:23:40;4.60;;;3.27;;
5559;SDS011;2803;47.916;8.074;2022-08-01T07:26:08;3.20;;;2.47;;
5559;SDS011;2803;47.916;8.074;2022-08-01T07:28:34;5.60;;;2.97;;
5559;SDS011;2803;47.916;8.074;2022-08-01T07:31:01;2.77;;;2.50;;
5559;SDS011;2803;47.916;8.074;2022-08-01T07:33:28;3.30;;;3.00;;
5559;SDS011;2803;47.916;8.074;2022-08-01T07:35:54;4.10;;;2.93;;
5559;SDS011;2803;47.916;8.074;2022-08-01T07:38:21;3.00;;;2.53;;
5559;SDS011;2803;47.916;8.074;2022-08-01T07:40:49;5.43;;;2.63;;
5559;SDS011;2803;47.916;8.074;2022-08-01T07:43:15;17.37;;;2.67;;
5559;SDS011;2803;47.916;8.074;2022-08-01T07:45:42;13.33;;;3.43;;
5559;SDS011;2803;47.916;8.074;2022-08-01T07:48:09;2.83;;;2.43;;
5559;SDS011;2803;47.916;8.074;2022-08-01T07:50:35;3.53;;;2.20;;
5559;SDS011;2803;47.916;8.074;2022-08-01T07:53:02;3.73;;;2.13;;
5559;SDS011;2803;47.916;8.074;2022-08-01T07:55:29;5.27;;;2.40;;
5559;SDS011;2803;47.916;8.074;2022-08-01T07:57:57;5.60;;;2.67;;
5559;SDS011;2803;47.916;8.074;2022-08-01T08:00:24;3.60;;;2.83;;
5559;SDS011;2803;47.916;8.074;2022-08-01T08:02:52;4.57;;;2.40;;
5559;SDS011;2803;47.916;8.074;2022-08-01T08:05:19;3.23;;;2.77;;
5559;SDS011;2803;47.916;8.074;2022-08-01T08:07:45;5.10;;;2.47;;
5559;SDS011;2803;47.916;8.074;2022-08-01T08:10:12;5.80;;;2.43;;
5559;SDS011;2803;47.916;8.074;2022-08-01T08:12:39;2.43;;;2.23;;
5559;SDS011;2803;47.916;8.074;2022-08-01T08:15:07;4.53;;;2.73;;
5559;SDS011;2803;47.916;8.074;2022-08-01T08:17:34;2.77;;;2.47;;
5559;SDS011;2803;47.916;8.074;2022-08-01T08:20:04;9.07;;;2.13;;
5559;SDS011;2803;47.916;8.074;2022-08-01T08:22:33;3.90;;;2.43;;
5559;SDS011;2803;47.916;8.074;2022-08-01T08:25:02;5.10;;;3.00;;
5559;SDS011;2803;47.916;8.074;2022-08-01T08:27:29;6.27;;;2.20;;
5559;SDS011;2803;47.916;8.074;2022-08-01T08:29:56;6.17;;;2.50;;
5559;SDS011;2803;47.916;8.074;2022-08-01T08:32:24;3.20;;;2.50;;
5559;SDS011;2803;47.916;8.074;2022-08-01T08:34:53;4.17;;;2.20;;
5559;SDS011;2803;47.916;8.074;2022-08-01T08:37:20;7.00;;;2.07;;
5559;SDS011;2803;47.916;8.074;2022-08-01T08:39:46;4.30;;;2.10;;
5559;SDS011;2803;47.916;8.074;2022-08-01T08:42:13;3.10;;;2.47;;
5559;SDS011;2803;47.916;8.074;2022-08-01T08:44:40;5.20;;;2.57;;
5559;SDS011;2803;47.916;8.074;2022-08-01T08:47:07;3.47;;;1.97;;
5559;SDS011;2803;47.916;8.074;2022-08-01T08:49:39;5.53;;;1.93;;
5559;SDS011;2803;47.916;8.074;2022-08-01T08:52:09;3.00;;;2.27;;
5559;SDS011;2803;47.916;8.074;2022-08-01T08:54:37;5.13;;;2.37;;
5559;SDS011;2803;47.916;8.074;2022-08-01T08:57:06;6.10;;;3.10;;
5559;SDS011;2803;47.916;8.074;2022-08-01T08:59:35;4.10;;;2.70;;
5559;SDS011;2803;47.916;8.074;2022-08-01T09:02:03;3.30;;;2.40;;
5559;SDS011;2803;47.916;8.074;2022-08-01T09:04:30;3.60;;;2.30;;
5559;SDS011;2803;47.916;8.074;2022-08-01T09:06:58;5.23;;;2.30;;
5559;SDS011;2803;47.916;8.074;2022-08-01T09:09:25;2.60;;;2.37;;
5559;SDS011;2803;47.916;8.074;2022-08-01T09:11:53;3.00;;;2.47;;
5559;SDS011;2803;47.916;8.074;2022-08-01T09:14:20;3.60;;;2.70;;
5559;SDS011;2803;47.916;8.074;2022-08-01T09:16:58;4.37;;;2.70;;
5559;SDS011;2803;47.916;8.074;2022-08-01T09:19:25;5.27;;;2.70;;
5559;SDS011;2803;47.916;8.074;2022-08-01T09:22:01;3.83;;;3.07;;
5559;SDS011;2803;47.916;8.074;2022-08-01T09:24:30;4.80;;;3.33;;
5559;SDS011;2803;47.916;8.074;2022-08-01T09:26:58;6.60;;;3.40;;
5559;SDS011;2803;47.916;8.074;2022-08-01T09:29:26;4.00;;;2.73;;
5559;SDS011;2803;47.916;8.074;2022-08-01T09:31:54;6.93;;;2.47;;
5559;SDS011;2803;47.916;8.074;2022-08-01T09:34:24;5.10;;;3.30;;
5559;SDS011;2803;47.916;8.074;2022-08-01T09:36:53;4.63;;;2.80;;
5559;SDS011;2803;47.916;8.074;2022-08-01T09:39:22;5.17;;;2.47;;
5559;SDS011;2803;47.916;8.074;2022-08-01T09:41:51;3.43;;;2.60;;
5559;SDS011;2803;47.916;8.074;2022-08-01T09:44:35;4.40;;;2.70;;
5559;SDS011;2803;47.916;8.074;2022-08-01T09:47:03;3.60;;;3.00;;
5559;SDS011;2803;47.916;8.074;2022-08-01T09:49:31;6.10;;;2.53;;
5559;SDS011;2803;47.916;8.074;2022-08-01T09:52:09;16.40;;;3.17;;
5559;SDS011;2803;47.916;8.074;2022-08-01T09:54:39;3.67;;;2.50;;
5559;SDS011;2803;47.916;8.074;2022-08-01T09:57:08;4.60;;;2.90;;
5559;SDS011;2803;47.916;8.074;2022-08-01T09:59:36;8.27;;;2.77;;
5559;SDS011;2803;47.916;8.074;2022-08-01T10:02:08;2.90;;;2.60;;
5559;SDS011;2803;47.916;8.074;2022-08-01T10:04:45;6.00;;;2.40;;
5559;SDS011;2803;47.916;8.074;2022-08-01T10:07:12;6.70;;;2.40;;
5559;SDS011;2803;47.916;8.074;2022-08-01T10:09:42;5.80;;;2.53;;
5559;SDS011;2803;47.916;8.074;2022-08-01T10:12:09;3.60;;;2.90;;
5559;SDS011;2803;47.916;8.074;2022-08-01T10:14:39;2.53;;;2.30;;
5559;SDS011;2803;47.916;8.074;2022-08-01T10:17:07;7.23;;;3.20;;
5559;SDS011;2803;47.916;8.074;2022-08-01T10:19:35;4.97;;;2.50;;
5559;SDS011;2803;47.916;8.074;2022-08-01T10:22:03;6.27;;;2.70;;
5559;SDS011;2803;47.916;8.074;2022-08-01T10:24:34;5.20;;;2.90;;
5559;SDS011;2803;47.916;8.074;2022-08-01T10:27:05;4.03;;;2.43;;
5559;SDS011;2803;47.916;8.074;2022-08-01T10:29:34;6.30;;;2.97;;
5559;SDS011;2803;47.916;8.074;2022-08-01T10:32:04;2.07;;;1.87;;
5559;SDS011;2803;47.916;8.074;2022-08-01T10:34:34;3.17;;;2.43;;
5559;SDS011;2803;47.916;8.074;2022-08-01T10:37:01;6.33;;;2.90;;
5559;SDS011;2803;47.916;8.074;2022-08-01T10:39:28;4.43;;;2.43;;
5559;SDS011;2803;47.916;8.074;2022-08-01T10:41:56;6.67;;;2.70;;
5559;SDS011;2803;47.916;8.074;2022-08-01T10:44:24;4.90;;;2.93;;
5559;SDS011;2803;47.916;8.074;2022-08-01T10:46:54;3.23;;;2.40;;
5559;SDS011;2803;47.916;8.074;2022-08-01T10:49:24;2.70;;;2.30;;
5559;SDS011;2803;47.916;8.074;2022-08-01T10:51:53;3.87;;;3.23;;
5559;SDS011;2803;47.916;8.074;2022-08-01T10:54:20;3.30;;;2.90;;
5559;SDS011;2803;47.916;8.074;2022-08-01T10:56:51;3.30;;;2.53;;
5559;SDS011;2803;47.916;8.074;2022-08-01T10:59:20;4.20;;;3.00;;
5559;SDS011;2803;47.916;8.074;2022-08-01T11:01:56;3.40;;;2.80;;
5559;SDS011;2803;47.916;8.074;2022-08-01T11:04:32;6.97;;;2.40;;
5559;SDS011;2803;47.916;8.074;2022-08-01T11:07:04;7.33;;;2.47;;
5559;SDS011;2803;47.916;8.074;2022-08-01T11:09:40;3.70;;;2.30;;
5559;SDS011;2803;47.916;8.074;2022-08-01T11:12:08;9.77;;;2.47;;
5559;SDS011;2803;47.916;8.074;2022-08-01T11:17:34;4.53;;;2.20;;
5559;SDS011;2803;47.916;8.074;2022-08-01T11:20:03;3.00;;;1.83;;
5559;SDS011;2803;47.916;8.074;2022-08-01T11:22:31;3.40;;;1.80;;
5559;SDS011;2803;47.916;8.074;2022-08-01T11:24:58;2.37;;;2.17;;
5559;SDS011;2803;47.916;8.074;2022-08-01T11:27:26;2.60;;;1.80;;
5559;SDS011;2803;47.916;8.074;2022-08-01T11:32:53;10.37;;;1.93;;
5559;SDS011;2803;47.916;8.074;2022-08-01T11:35:22;5.30;;;2.10;;
5559;SDS011;2803;47.916;8.074;2022-08-01T11:37:51;5.47;;;2.20;;
5559;SDS011;2803;47.916;8.074;2022-08-01T11:40:21;2.10;;;1.90;;
5559;SDS011;2803;47.916;8.074;2022-08-01T11:42:49;4.30;;;2.40;;
5559;SDS011;2803;47.916;8.074;2022-08-01T11:45:46;4.87;;;2.10;;
5559;SDS011;2803;47.916;8.074;2022-08-01T11:48:18;2.77;;;2.00;;
5559;SDS011;2803;47.916;8.074;2022-08-01T11:50:46;4.43;;;2.10;;
5559;SDS011;2803;47.916;8.074;2022-08-01T11:53:13;4.17;;;1.90;;
5559;SDS011;2803;47.916;8.074;2022-08-01T11:55:43;2.27;;;1.57;;
5559;SDS011;2803;47.916;8.074;2022-08-01T11:58:12;3.23;;;1.73;;
5559;SDS011;2803;47.916;8.074;2022-08-01T12:00:38;5.00;;;2.33;;
5559;SDS011;2803;47.916;8.074;2022-08-01T12:03:06;2.53;;;2.00;;
5559;SDS011;2803;47.916;8.074;2022-08-01T12:05:36;6.33;;;2.00;;
5559;SDS011;2803;47.916;8.074;2022-08-01T12:08:03;3.03;;;1.48;;
5559;SDS011;2803;47.916;8.074;2022-08-01T12:10:30;3.22;;;1.90;;
5559;SDS011;2803;47.916;8.074;2022-08-01T12:13:02;4.13;;;2.03;;
5559;SDS011;2803;47.916;8.074;2022-08-01T12:15:31;2.40;;;2.00;;
5559;SDS011;2803;47.916;8.074;2022-08-01T12:17:59;6.30;;;2.10;;
5559;SDS011;2803;47.916;8.074;2022-08-01T12:20:27;4.43;;;1.60;;
5559;SDS011;2803;47.916;8.074;2022-08-01T12:22:57;6.03;;;1.67;;
5559;SDS011;2803;47.916;8.074;2022-08-01T12:25:25;2.80;;;1.90;;
5559;SDS011;2803;47.916;8.074;2022-08-01T12:27:51;3.30;;;1.90;;
5559;SDS011;2803;47.916;8.074;2022-08-01T12:30:19;3.23;;;1.77;;
5559;SDS011;2803;47.916;8.074;2022-08-01T12:32:49;2.40;;;1.20;;
5559;SDS011;2803;47.916;8.074;2022-08-01T12:35:17;3.40;;;1.58;;
5559;SDS011;2803;47.916;8.074;2022-08-01T12:37:45;22.45;;;2.58;;
5559;SDS011;2803;47.916;8.074;2022-08-01T12:40:15;8.20;;;1.73;;
5559;SDS011;2803;47.916;8.074;2022-08-01T12:42:43;6.03;;;2.20;;
5559;SDS011;2803;47.916;8.074;2022-08-01T12:45:12;2.50;;;1.67;;
5559;SDS011;2803;47.916;8.074;2022-08-01T12:47:40;3.22;;;1.83;;
5559;SDS011;2803;47.916;8.074;2022-08-01T12:50:11;2.28;;;1.80;;
5559;SDS011;2803;47.916;8.074;2022-08-01T12:52:38;4.68;;;2.13;;
5559;SDS011;2803;47.916;8.074;2022-08-01T12:55:07;2.22;;;1.80;;
5559;SDS011;2803;47.916;8.074;2022-08-01T12:57:38;4.10;;;1.98;;
5559;SDS011;2803;47.916;8.074;2022-08-01T13:00:08;4.63;;;1.90;;
5559;SDS011;2803;47.916;8.074;2022-08-01T13:02:38;15.70;;;3.00;;
5559;SDS011;2803;47.916;8.074;2022-08-01T13:05:05;3.93;;;2.00;;
5559;SDS011;2803;47.916;8.074;2022-08-01T13:07:35;1.70;;;1.50;;
5559;SDS011;2803;47.916;8.074;2022-08-01T13:10:02;2.37;;;2.10;;
5559;SDS011;2803;47.916;8.074;2022-08-01T13:12:30;4.00;;;1.93;;
5559;SDS011;2803;47.916;8.074;2022-08-01T13:14:58;3.50;;;1.70;;
5559;SDS011;2803;47.916;8.074;2022-08-01T13:17:31;6.20;;;1.90;;
5559;SDS011;2803;47.916;8.074;2022-08-01T13:20:00;2.63;;;2.10;;
5559;SDS011;2803;47.916;8.074;2022-08-01T13:22:34;8.15;;;1.95;;
5559;SDS011;2803;47.916;8.074;2022-08-01T13:25:09;4.97;;;1.70;;
5559;SDS011;2803;47.916;8.074;2022-08-01T13:27:37;2.40;;;2.20;;
5559;SDS011;2803;47.916;8.074;2022-08-01T13:30:12;2.90;;;1.80;;
5559;SDS011;2803;47.916;8.074;2022-08-01T13:32:40;4.73;;;2.13;;
5559;SDS011;2803;47.916;8.074;2022-08-01T13:35:08;2.50;;;2.07;;
5559;SDS011;2803;47.916;8.074;2022-08-01T13:37:37;14.30;;;2.30;;
5559;SDS011;2803;47.916;8.074;2022-08-01T13:40:04;4.10;;;2.07;;
5559;SDS011;2803;47.916;8.074;2022-08-01T13:42:31;3.43;;;2.20;;
5559;SDS011;2803;47.916;8.074;2022-08-01T13:44:58;6.20;;;2.40;;
5559;SDS011;2803;47.916;8.074;2022-08-01T13:47:26;3.10;;;2.30;;
5559;SDS011;2803;47.916;8.074;2022-08-01T13:49:52;4.93;;;2.43;;
5559;SDS011;2803;47.916;8.074;2022-08-01T13:52:19;3.90;;;1.83;;
5559;SDS011;2803;47.916;8.074;2022-08-01T13:54:46;2.43;;;2.23;;
5559;SDS011;2803;47.916;8.074;2022-08-01T13:57:13;3.20;;;2.57;;
5559;SDS011;2803;47.916;8.074;2022-08-01T13:59:41;5.10;;;2.30;;
5559;SDS011;2803;47.916;8.074;2022-08-01T14:02:07;4.40;;;2.23;;
5559;SDS011;2803;47.916;8.074;2022-08-01T14:04:35;2.47;;;2.23;;
5559;SDS011;2803;47.916;8.074;2022-08-01T14:07:02;6.40;;;2.40;;
5559;SDS011;2803;47.916;8.074;2022-08-01T14:09:29;2.60;;;2.33;;
5559;SDS011;2803;47.916;8.074;2022-08-01T14:11:55;3.10;;;2.40;;
5559;SDS011;2803;47.916;8.074;2022-08-01T14:14:22;2.10;;;1.90;;
5559;SDS011;2803;47.916;8.074;2022-08-01T14:16:49;2.30;;;2.10;;
5559;SDS011;2803;47.916;8.074;2022-08-01T14:19:15;1.93;;;1.73;;
5559;SDS011;2803;47.916;8.074;2022-08-01T14:21:44;4.15;;;2.50;;
5559;SDS011;2803;47.916;8.074;2022-08-01T14:24:10;21.85;;;2.75;;
5559;SDS011;2803;47.916;8.074;2022-08-01T14:26:37;2.92;;;2.40;;
5559;SDS011;2803;47.916;8.074;2022-08-01T14:29:04;7.30;;;2.38;;
5559;SDS011;2803;47.916;8.074;2022-08-01T14:31:30;7.72;;;2.20;;
5559;SDS011;2803;47.916;8.074;2022-08-01T14:33:57;3.25;;;2.10;;
5559;SDS011;2803;47.916;8.074;2022-08-01T14:36:24;4.32;;;2.90;;
5559;SDS011;2803;47.916;8.074;2022-08-01T14:38:51;2.50;;;2.20;;
5559;SDS011;2803;47.916;8.074;2022-08-01T14:41:18;4.53;;;2.60;;
5559;SDS011;2803;47.916;8.074;2022-08-01T14:43:45;4.60;;;2.63;;
5559;SDS011;2803;47.916;8.074;2022-08-01T14:46:11;16.60;;;2.40;;
5559;SDS011;2803;47.916;8.074;2022-08-01T14:48:38;3.47;;;2.47;;
5559;SDS011;2803;47.916;8.074;2022-08-01T14:51:05;9.30;;;2.80;;
5559;SDS011;2803;47.916;8.074;2022-08-01T14:53:32;6.20;;;2.70;;
5559;SDS011;2803;47.916;8.074;2022-08-01T14:56:01;6.20;;;2.90;;
5559;SDS011;2803;47.916;8.074;2022-08-01T14:58:28;12.10;;;3.27;;
5559;SDS011;2803;47.916;8.074;2022-08-01T15:00:54;3.33;;;2.87;;
5559;SDS011;2803;47.916;8.074;2022-08-01T15:03:22;3.40;;;2.60;;
5559;SDS011;2803;47.916;8.074;2022-08-01T15:05:48;3.63;;;2.60;;
5559;SDS011;2803;47.916;8.074;2022-08-01T15:08:15;4.83;;;2.87;;
5559;SDS011;2803;47.916;8.074;2022-08-01T15:10:45;3.70;;;3.00;;
5559;SDS011;2803;47.916;8.074;2022-08-01T15:13:13;4.40;;;2.40;;
5559;SDS011;2803;47.916;8.074;2022-08-01T15:15:39;6.30;;;3.20;;
5559;SDS011;2803;47.916;8.074;2022-08-01T15:18:06;3.10;;;2.80;;
5559;SDS011;2803;47.916;8.074;2022-08-01T15:20:32;3.53;;;2.87;;
5559;SDS011;2803;47.916;8.074;2022-08-01T15:22:59;3.93;;;3.23;;
5559;SDS011;2803;47.916;8.074;2022-08-01T15:25:26;4.20;;;3.07;;
5559;SDS011;2803;47.916;8.074;2022-08-01T15:27:54;6.83;;;3.03;;